sensor_id;sensor_type;location;lat;lon;timestamp;P1;durP1;ratioP1;P2;durP2;ratioP2
69485;SDS011;56677;51.710;5.366;2024-02-28T06:02:21;6.18;;;2.70;;
69485;SDS011;56677;51.710;5.366;2024-02-28T06:04:46;3.35;;;2.22;;
69485;SDS011;56677;51.710;5.366;2024-02-28T06:07:11;3.58;;;2.45;;
69485;SDS011;56677;51.710;5.366;2024-02-28T06:09:36;3.85;;;2.53;;
69485;SDS011;56677;51.710;5.366;2024-02-28T06:12:01;4.30;;;2.40;;
69485;SDS011;56677;51.710;5.366;2024-02-28T06:14:27;4.00;;;2.50;;
69485;SDS011;56677;51.710;5.366;2024-02-28T06:16:52;4.10;;;2.30;;
69485;SDS011;56677;51.710;5.366;2024-02-28T06:19:17;4.15;;;2.63;;
69485;SDS011;56677;51.710;5.366;2024-02-28T06:21:42;5.18;;;2.55;;
69485;SDS011;56677;51.710;5.366;2024-02-28T06:24:07;5.50;;;2.30;;
69485;SDS011;56677;51.710;5.366;2024-02-28T06:26:32;3.08;;;2.13;;
69485;SDS011;56677;51.710;5.366;2024-02-28T06:28:57;4.88;;;2.30;;
69485;SDS011;56677;51.710;5.366;2024-02-28T06:31:22;2.88;;;2.08;;
69485;SDS011;56677;51.710;5.366;2024-02-28T06:33:48;4.22;;;2.33;;
69485;SDS011;56677;51.710;5.366;2024-02-28T06:36:13;4.45;;;2.33;;
69485;SDS011;56677;51.710;5.366;2024-02-28T06:38:38;4.67;;;2.30;;
69485;SDS011;56677;51.710;5.366;2024-02-28T06:41:06;3.50;;;1.95;;
69485;SDS011;56677;51.710;5.366;2024-02-28T06:43:34;4.03;;;2.30;;
69485;SDS011;56677;51.710;5.366;2024-02-28T06:45:59;3.57;;;2.20;;
69485;SDS011;56677;51.710;5.366;2024-02-28T06:48:24;4.68;;;2.45;;
69485;SDS011;56677;51.710;5.366;2024-02-28T06:50:50;3.55;;;2.17;;
69485;SDS011;56677;51.710;5.366;2024-02-28T06:53:15;4.37;;;2.27;;
69485;SDS011;56677;51.710;5.366;2024-02-28T06:55:40;5.55;;;2.28;;
69485;SDS011;56677;51.710;5.366;2024-02-28T06:58:05;6.25;;;2.25;;
69485;SDS011;56677;51.710;5.366;2024-02-28T07:00:30;4.15;;;2.10;;
69485;SDS011;56677;51.710;5.366;2024-02-28T07:02:55;6.32;;;2.30;;
69485;SDS011;56677;51.710;5.366;2024-02-28T07:05:21;10.02;;;2.42;;
69485;SDS011;56677;51.710;5.366;2024-02-28T07:07:46;8.17;;;3.23;;
69485;SDS011;56677;51.710;5.366;2024-02-28T07:10:11;4.25;;;2.30;;
69485;SDS011;56677;51.710;5.366;2024-02-28T07:12:36;4.95;;;2.45;;
69485;SDS011;56677;51.710;5.366;2024-02-28T07:15:02;5.00;;;2.30;;
69485;SDS011;56677;51.710;5.366;2024-02-28T07:17:27;5.97;;;2.60;;
69485;SDS011;56677;51.710;5.366;2024-02-28T07:19:52;5.40;;;2.50;;
69485;SDS011;56677;51.710;5.366;2024-02-28T07:22:17;4.33;;;2.70;;
69485;SDS011;56677;51.710;5.366;2024-02-28T07:24:42;6.90;;;3.73;;
69485;SDS011;56677;51.710;5.366;2024-02-28T07:27:07;7.90;;;3.70;;
69485;SDS011;56677;51.710;5.366;2024-02-28T07:29:33;8.63;;;4.00;;
69485;SDS011;56677;51.710;5.366;2024-02-28T07:31:58;9.10;;;3.50;;
69485;SDS011;56677;51.710;5.366;2024-02-28T07:34:23;8.43;;;4.07;;
69485;SDS011;56677;51.710;5.366;2024-02-28T07:36:48;8.77;;;3.55;;
69485;SDS011;56677;51.710;5.366;2024-02-28T07:39:13;12.47;;;4.53;;
69485;SDS011;56677;51.710;5.366;2024-02-28T07:41:39;8.98;;;3.67;;
69485;SDS011;56677;51.710;5.366;2024-02-28T07:44:04;9.10;;;4.10;;
69485;SDS011;56677;51.710;5.366;2024-02-28T07:46:29;10.37;;;3.70;;
69485;SDS011;56677;51.710;5.366;2024-02-28T07:48:54;8.13;;;4.15;;
69485;SDS011;56677;51.710;5.366;2024-02-28T07:51:19;13.60;;;3.87;;
69485;SDS011;56677;51.710;5.366;2024-02-28T07:53:44;8.90;;;3.90;;
69485;SDS011;56677;51.710;5.366;2024-02-28T07:56:19;9.73;;;4.10;;
69485;SDS011;56677;51.710;5.366;2024-02-28T07:58:44;7.70;;;3.80;;
69485;SDS011;56677;51.710;5.366;2024-02-28T08:01:09;11.25;;;3.70;;
69485;SDS011;56677;51.710;5.366;2024-02-28T08:03:34;10.97;;;4.00;;
69485;SDS011;56677;51.710;5.366;2024-02-28T08:05:59;10.43;;;3.65;;
69485;SDS011;56677;51.710;5.366;2024-02-28T08:08:24;10.55;;;3.20;;
69485;SDS011;56677;51.710;5.366;2024-02-28T08:10:50;8.00;;;3.88;;
69485;SDS011;56677;51.710;5.366;2024-02-28T08:13:15;10.27;;;3.25;;
69485;SDS011;56677;51.710;5.366;2024-02-28T08:15:40;6.97;;;3.33;;
69485;SDS011;56677;51.710;5.366;2024-02-28T08:18:05;6.90;;;3.33;;
69485;SDS011;56677;51.710;5.366;2024-02-28T08:20:30;8.55;;;2.83;;
69485;SDS011;56677;51.710;5.366;2024-02-28T08:22:55;7.82;;;3.30;;
69485;SDS011;56677;51.710;5.366;2024-02-28T08:25:20;10.52;;;3.10;;
69485;SDS011;56677;51.710;5.366;2024-02-28T08:27:45;9.97;;;3.67;;
69485;SDS011;56677;51.710;5.366;2024-02-28T08:30:10;7.53;;;2.78;;
69485;SDS011;56677;51.710;5.366;2024-02-28T08:32:36;9.37;;;3.43;;
69485;SDS011;56677;51.710;5.366;2024-02-28T08:35:01;8.55;;;3.17;;
69485;SDS011;56677;51.710;5.366;2024-02-28T08:37:26;6.83;;;3.17;;
69485;SDS011;56677;51.710;5.366;2024-02-28T08:39:51;7.97;;;3.50;;
69485;SDS011;56677;51.710;5.366;2024-02-28T08:42:16;6.35;;;3.17;;
69485;SDS011;56677;51.710;5.366;2024-02-28T08:44:41;7.97;;;2.90;;
69485;SDS011;56677;51.710;5.366;2024-02-28T08:47:06;6.72;;;3.38;;
69485;SDS011;56677;51.710;5.366;2024-02-28T08:49:32;7.38;;;3.20;;
69485;SDS011;56677;51.710;5.366;2024-02-28T08:51:57;8.25;;;3.20;;
69485;SDS011;56677;51.710;5.366;2024-02-28T08:54:22;7.05;;;3.10;;
69485;SDS011;56677;51.710;5.366;2024-02-28T08:56:47;5.20;;;3.00;;
69485;SDS011;56677;51.710;5.366;2024-02-28T08:59:13;7.23;;;3.00;;
69485;SDS011;56677;51.710;5.366;2024-02-28T09:01:38;7.70;;;2.63;;
69485;SDS011;56677;51.710;5.366;2024-02-28T09:04:03;7.15;;;2.92;;
69485;SDS011;56677;51.710;5.366;2024-02-28T09:06:28;6.20;;;3.10;;
69485;SDS011;56677;51.710;5.366;2024-02-28T09:08:53;5.72;;;2.83;;
69485;SDS011;56677;51.710;5.366;2024-02-28T09:11:18;5.80;;;2.70;;
69485;SDS011;56677;51.710;5.366;2024-02-28T09:13:43;5.28;;;2.38;;
69485;SDS011;56677;51.710;5.366;2024-02-28T09:16:09;6.37;;;2.63;;
69485;SDS011;56677;51.710;5.366;2024-02-28T09:18:34;7.57;;;2.80;;
69485;SDS011;56677;51.710;5.366;2024-02-28T09:20:59;8.70;;;2.78;;
69485;SDS011;56677;51.710;5.366;2024-02-28T09:26:07;5.72;;;2.85;;
69485;SDS011;56677;51.710;5.366;2024-02-28T09:28:33;4.95;;;2.17;;
69485;SDS011;56677;51.710;5.366;2024-02-28T09:30:58;8.10;;;2.95;;
69485;SDS011;56677;51.710;5.366;2024-02-28T09:33:23;5.32;;;2.78;;
69485;SDS011;56677;51.710;5.366;2024-02-28T09:35:48;7.75;;;3.22;;
69485;SDS011;56677;51.710;5.366;2024-02-28T09:38:13;6.13;;;2.80;;
69485;SDS011;56677;51.710;5.366;2024-02-28T09:40:38;6.80;;;2.90;;
69485;SDS011;56677;51.710;5.366;2024-02-28T09:43:03;5.87;;;3.10;;
69485;SDS011;56677;51.710;5.366;2024-02-28T09:45:29;4.10;;;2.33;;
69485;SDS011;56677;51.710;5.366;2024-02-28T09:47:54;5.80;;;2.83;;
69485;SDS011;56677;51.710;5.366;2024-02-28T09:50:20;8.60;;;2.73;;
69485;SDS011;56677;51.710;5.366;2024-02-28T09:52:45;6.55;;;2.88;;
69485;SDS011;56677;51.710;5.366;2024-02-28T09:55:10;5.32;;;2.70;;
69485;SDS011;56677;51.710;5.366;2024-02-28T09:57:35;5.60;;;2.40;;
69485;SDS011;56677;51.710;5.366;2024-02-28T10:00:01;6.07;;;2.50;;
69485;SDS011;56677;51.710;5.366;2024-02-28T10:02:26;6.03;;;2.60;;
69485;SDS011;56677;51.710;5.366;2024-02-28T10:04:52;7.10;;;2.60;;
69485;SDS011;56677;51.710;5.366;2024-02-28T10:07:18;5.57;;;2.60;;
69485;SDS011;56677;51.710;5.366;2024-02-28T10:09:43;5.67;;;2.80;;
69485;SDS011;56677;51.710;5.366;2024-02-28T10:12:08;5.32;;;2.72;;
69485;SDS011;56677;51.710;5.366;2024-02-28T10:14:33;6.10;;;2.40;;
69485;SDS011;56677;51.710;5.366;2024-02-28T10:16:59;6.23;;;2.60;;
69485;SDS011;56677;51.710;5.366;2024-02-28T10:19:24;6.60;;;2.50;;
69485;SDS011;56677;51.710;5.366;2024-02-28T10:21:50;5.43;;;2.50;;
69485;SDS011;56677;51.710;5.366;2024-02-28T10:24:15;8.07;;;3.10;;
69485;SDS011;56677;51.710;5.366;2024-02-28T10:26:46;5.68;;;2.60;;
69485;SDS011;56677;51.710;5.366;2024-02-28T10:29:11;8.25;;;2.50;;
69485;SDS011;56677;51.710;5.366;2024-02-28T10:31:36;4.68;;;2.30;;
69485;SDS011;56677;51.710;5.366;2024-02-28T10:34:02;5.18;;;2.50;;
69485;SDS011;56677;51.710;5.366;2024-02-28T10:36:27;4.30;;;2.50;;
69485;SDS011;56677;51.710;5.366;2024-02-28T10:38:55;7.22;;;2.67;;
69485;SDS011;56677;51.710;5.366;2024-02-28T10:41:20;6.10;;;3.03;;
69485;SDS011;56677;51.710;5.366;2024-02-28T10:43:45;4.47;;;2.55;;
69485;SDS011;56677;51.710;5.366;2024-02-28T10:46:10;5.00;;;2.63;;
69485;SDS011;56677;51.710;5.366;2024-02-28T10:48:39;5.47;;;2.53;;
69485;SDS011;56677;51.710;5.366;2024-02-28T10:51:04;5.33;;;2.40;;
69485;SDS011;56677;51.710;5.366;2024-02-28T10:53:36;4.20;;;2.53;;
69485;SDS011;56677;51.710;5.366;2024-02-28T10:56:02;5.15;;;2.58;;
69485;SDS011;56677;51.710;5.366;2024-02-28T10:58:28;5.17;;;2.20;;
69485;SDS011;56677;51.710;5.366;2024-02-28T11:00:54;5.85;;;2.55;;
69485;SDS011;56677;51.710;5.366;2024-02-28T11:03:19;5.18;;;2.38;;
69485;SDS011;56677;51.710;5.366;2024-02-28T11:05:45;4.73;;;2.23;;
69485;SDS011;56677;51.710;5.366;2024-02-28T11:08:10;5.60;;;2.75;;
69485;SDS011;56677;51.710;5.366;2024-02-28T11:10:35;6.10;;;3.03;;
69485;SDS011;56677;51.710;5.366;2024-02-28T11:13:00;5.50;;;2.40;;
69485;SDS011;56677;51.710;5.366;2024-02-28T11:15:26;6.10;;;2.53;;
69485;SDS011;56677;51.710;5.366;2024-02-28T11:17:51;5.20;;;2.50;;
69485;SDS011;56677;51.710;5.366;2024-02-28T11:20:16;5.10;;;2.70;;
69485;SDS011;56677;51.710;5.366;2024-02-28T11:22:41;4.00;;;2.40;;
69485;SDS011;56677;51.710;5.366;2024-02-28T11:25:07;4.15;;;2.17;;
69485;SDS011;56677;51.710;5.366;2024-02-28T11:27:32;4.57;;;2.53;;
69485;SDS011;56677;51.710;5.366;2024-02-28T11:29:57;3.27;;;2.30;;
69485;SDS011;56677;51.710;5.366;2024-02-28T11:32:24;5.53;;;2.27;;
69485;SDS011;56677;51.710;5.366;2024-02-28T11:34:49;5.50;;;2.83;;
69485;SDS011;56677;51.710;5.366;2024-02-28T11:37:14;5.25;;;2.42;;
69485;SDS011;56677;51.710;5.366;2024-02-28T11:39:39;4.00;;;2.10;;
69485;SDS011;56677;51.710;5.366;2024-02-28T11:42:08;5.25;;;2.28;;
69485;SDS011;56677;51.710;5.366;2024-02-28T11:44:33;4.45;;;2.40;;
69485;SDS011;56677;51.710;5.366;2024-02-28T11:46:58;5.20;;;2.50;;
69485;SDS011;56677;51.710;5.366;2024-02-28T11:49:24;6.17;;;2.70;;
69485;SDS011;56677;51.710;5.366;2024-02-28T11:51:50;4.68;;;2.20;;
69485;SDS011;56677;51.710;5.366;2024-02-28T11:54:15;4.65;;;2.13;;
69485;SDS011;56677;51.710;5.366;2024-02-28T11:56:40;5.10;;;2.72;;
69485;SDS011;56677;51.710;5.366;2024-02-28T11:59:06;5.40;;;2.40;;
69485;SDS011;56677;51.710;5.366;2024-02-28T12:01:34;3.97;;;2.53;;
69485;SDS011;56677;51.710;5.366;2024-02-28T12:04:01;5.13;;;2.38;;
69485;SDS011;56677;51.710;5.366;2024-02-28T12:06:26;3.67;;;1.98;;
69485;SDS011;56677;51.710;5.366;2024-02-28T12:08:51;3.27;;;2.40;;
69485;SDS011;56677;51.710;5.366;2024-02-28T12:11:18;3.73;;;2.20;;
69485;SDS011;56677;51.710;5.366;2024-02-28T12:13:44;4.93;;;2.38;;
69485;SDS011;56677;51.710;5.366;2024-02-28T12:16:09;4.55;;;2.25;;
69485;SDS011;56677;51.710;5.366;2024-02-28T12:18:34;4.95;;;2.40;;
69485;SDS011;56677;51.710;5.366;2024-02-28T12:20:59;4.00;;;2.40;;
69485;SDS011;56677;51.710;5.366;2024-02-28T12:23:25;4.93;;;2.60;;
69485;SDS011;56677;51.710;5.366;2024-02-28T12:25:50;5.10;;;2.40;;
69485;SDS011;56677;51.710;5.366;2024-02-28T12:28:15;4.20;;;2.22;;
69485;SDS011;56677;51.710;5.366;2024-02-28T12:30:41;4.47;;;2.65;;
69485;SDS011;56677;51.710;5.366;2024-02-28T12:33:06;4.67;;;2.40;;
69485;SDS011;56677;51.710;5.366;2024-02-28T12:35:31;3.85;;;2.30;;
69485;SDS011;56677;51.710;5.366;2024-02-28T12:37:56;4.95;;;2.40;;
69485;SDS011;56677;51.710;5.366;2024-02-28T12:40:21;4.25;;;2.40;;
69485;SDS011;56677;51.710;5.366;2024-02-28T12:42:46;4.70;;;2.60;;
69485;SDS011;56677;51.710;5.366;2024-02-28T12:45:11;4.18;;;2.22;;
69485;SDS011;56677;51.710;5.366;2024-02-28T12:47:37;4.40;;;2.72;;
69485;SDS011;56677;51.710;5.366;2024-02-28T12:50:02;5.40;;;2.40;;
69485;SDS011;56677;51.710;5.366;2024-02-28T12:52:27;4.90;;;2.10;;
69485;SDS011;56677;51.710;5.366;2024-02-28T12:54:52;3.70;;;2.20;;
69485;SDS011;56677;51.710;5.366;2024-02-28T12:57:17;3.85;;;2.22;;
69485;SDS011;56677;51.710;5.366;2024-02-28T12:59:42;3.93;;;2.63;;
69485;SDS011;56677;51.710;5.366;2024-02-28T13:02:08;4.18;;;2.20;;
69485;SDS011;56677;51.710;5.366;2024-02-28T13:04:33;3.47;;;2.13;;
69485;SDS011;56677;51.710;5.366;2024-02-28T13:06:58;5.20;;;2.35;;
69485;SDS011;56677;51.710;5.366;2024-02-28T13:09:23;3.25;;;2.20;;
69485;SDS011;56677;51.710;5.366;2024-02-28T13:11:48;4.05;;;2.13;;
69485;SDS011;56677;51.710;5.366;2024-02-28T13:14:14;4.18;;;2.28;;
69485;SDS011;56677;51.710;5.366;2024-02-28T13:16:39;4.07;;;2.20;;
69485;SDS011;56677;51.710;5.366;2024-02-28T13:19:04;3.27;;;1.90;;
69485;SDS011;56677;51.710;5.366;2024-02-28T13:21:29;4.47;;;2.20;;
69485;SDS011;56677;51.710;5.366;2024-02-28T13:23:54;3.97;;;2.30;;
69485;SDS011;56677;51.710;5.366;2024-02-28T13:26:19;3.92;;;2.30;;
69485;SDS011;56677;51.710;5.366;2024-02-28T13:28:44;4.75;;;2.22;;
69485;SDS011;56677;51.710;5.366;2024-02-28T13:31:09;5.03;;;2.23;;
69485;SDS011;56677;51.710;5.366;2024-02-28T13:33:35;4.38;;;2.40;;
69485;SDS011;56677;51.710;5.366;2024-02-28T13:36:00;4.22;;;2.13;;
69485;SDS011;56677;51.710;5.366;2024-02-28T13:38:25;3.42;;;2.20;;
69485;SDS011;56677;51.710;5.366;2024-02-28T13:40:50;4.60;;;2.10;;
69485;SDS011;56677;51.710;5.366;2024-02-28T13:43:15;3.65;;;2.08;;
69485;SDS011;56677;51.710;5.366;2024-02-28T13:45:50;3.60;;;2.37;;
69485;SDS011;56677;51.710;5.366;2024-02-28T13:48:18;4.90;;;2.28;;
69485;SDS011;56677;51.710;5.366;2024-02-28T13:50:44;3.65;;;2.28;;
69485;SDS011;56677;51.710;5.366;2024-02-28T13:53:09;3.40;;;2.00;;
69485;SDS011;56677;51.710;5.366;2024-02-28T13:55:35;5.15;;;2.60;;
69485;SDS011;56677;51.710;5.366;2024-02-28T13:58:00;4.00;;;2.23;;
69485;SDS011;56677;51.710;5.366;2024-02-28T14:00:25;4.05;;;2.20;;
69485;SDS011;56677;51.710;5.366;2024-02-28T14:02:50;4.70;;;2.10;;
69485;SDS011;56677;51.710;5.366;2024-02-28T14:05:15;4.63;;;2.08;;
69485;SDS011;56677;51.710;5.366;2024-02-28T14:07:40;4.73;;;2.40;;
69485;SDS011;56677;51.710;5.366;2024-02-28T14:10:05;3.70;;;2.45;;
69485;SDS011;56677;51.710;5.366;2024-02-28T14:12:31;4.23;;;2.13;;
69485;SDS011;56677;51.710;5.366;2024-02-28T14:14:56;3.67;;;2.00;;
69485;SDS011;56677;51.710;5.366;2024-02-28T14:17:21;3.13;;;2.08;;
69485;SDS011;56677;51.710;5.366;2024-02-28T14:19:46;4.35;;;2.25;;
69485;SDS011;56677;51.710;5.366;2024-02-28T14:22:11;5.20;;;2.38;;
69485;SDS011;56677;51.710;5.366;2024-02-28T14:24:36;4.73;;;2.30;;
69485;SDS011;56677;51.710;5.366;2024-02-28T14:27:01;3.80;;;2.00;;
69485;SDS011;56677;51.710;5.366;2024-02-28T14:29:27;3.80;;;2.10;;
69485;SDS011;56677;51.710;5.366;2024-02-28T14:31:52;4.60;;;2.30;;
69485;SDS011;56677;51.710;5.366;2024-02-28T14:34:17;4.70;;;2.08;;
69485;SDS011;56677;51.710;5.366;2024-02-28T14:36:42;4.80;;;2.30;;
69485;SDS011;56677;51.710;5.366;2024-02-28T14:39:07;4.03;;;2.42;;
69485;SDS011;56677;51.710;5.366;2024-02-28T14:41:32;4.03;;;2.20;;
69485;SDS011;56677;51.710;5.366;2024-02-28T14:43:57;3.92;;;2.40;;
69485;SDS011;56677;51.710;5.366;2024-02-28T14:46:22;4.43;;;2.53;;
69485;SDS011;56677;51.710;5.366;2024-02-28T14:48:47;3.65;;;2.20;;
69485;SDS011;56677;51.710;5.366;2024-02-28T14:51:13;3.88;;;2.30;;
69485;SDS011;56677;51.710;5.366;2024-02-28T14:53:38;3.58;;;2.22;;
69485;SDS011;56677;51.710;5.366;2024-02-28T14:56:03;3.93;;;2.67;;
69485;SDS011;56677;51.710;5.366;2024-02-28T14:58:28;3.47;;;2.20;;
69485;SDS011;56677;51.710;5.366;2024-02-28T15:00:53;4.65;;;2.33;;
69485;SDS011;56677;51.710;5.366;2024-02-28T15:03:18;4.05;;;2.38;;
69485;SDS011;56677;51.710;5.366;2024-02-28T15:05:43;3.70;;;2.15;;
69485;SDS011;56677;51.710;5.366;2024-02-28T15:08:09;4.07;;;2.43;;
69485;SDS011;56677;51.710;5.366;2024-02-28T15:10:34;4.17;;;2.23;;
69485;SDS011;56677;51.710;5.366;2024-02-28T15:13:00;4.28;;;2.22;;
69485;SDS011;56677;51.710;5.366;2024-02-28T15:15:25;4.10;;;2.35;;
69485;SDS011;56677;51.710;5.366;2024-02-28T15:17:50;3.67;;;2.17;;
69485;SDS011;56677;51.710;5.366;2024-02-28T15:20:15;4.63;;;2.45;;
69485;SDS011;56677;51.710;5.366;2024-02-28T15:22:40;4.85;;;2.08;;
69485;SDS011;56677;51.710;5.366;2024-02-28T15:25:05;4.55;;;2.03;;
69485;SDS011;56677;51.710;5.366;2024-02-28T15:27:30;3.23;;;2.13;;
69485;SDS011;56677;51.710;5.366;2024-02-28T15:29:56;3.72;;;2.65;;
69485;SDS011;56677;51.710;5.366;2024-02-28T15:32:21;3.77;;;2.00;;
69485;SDS011;56677;51.710;5.366;2024-02-28T15:34:46;3.03;;;2.10;;
69485;SDS011;56677;51.710;5.366;2024-02-28T15:37:11;4.23;;;2.53;;
69485;SDS011;56677;51.710;5.366;2024-02-28T15:39:36;3.38;;;2.15;;
69485;SDS011;56677;51.710;5.366;2024-02-28T15:42:01;3.80;;;2.23;;
69485;SDS011;56677;51.710;5.366;2024-02-28T15:44:26;4.03;;;2.30;;
69485;SDS011;56677;51.710;5.366;2024-02-28T15:46:52;3.65;;;2.30;;
69485;SDS011;56677;51.710;5.366;2024-02-28T15:49:17;2.83;;;1.90;;
69485;SDS011;56677;51.710;5.366;2024-02-28T15:51:42;3.77;;;2.07;;
69485;SDS011;56677;51.710;5.366;2024-02-28T15:54:07;4.40;;;2.00;;
69485;SDS011;56677;51.710;5.366;2024-02-28T15:56:32;4.18;;;2.03;;
69485;SDS011;56677;51.710;5.366;2024-02-28T15:58:57;5.10;;;2.00;;
69485;SDS011;56677;51.710;5.366;2024-02-28T16:01:22;4.07;;;2.28;;
69485;SDS011;56677;51.710;5.366;2024-02-28T16:03:48;4.17;;;2.17;;
69485;SDS011;56677;51.710;5.366;2024-02-28T16:06:13;3.93;;;2.07;;
69485;SDS011;56677;51.710;5.366;2024-02-28T16:08:41;4.28;;;2.10;;
69485;SDS011;56677;51.710;5.366;2024-02-28T16:11:07;3.83;;;2.13;;
69485;SDS011;56677;51.710;5.366;2024-02-28T16:13:32;3.35;;;1.95;;
69485;SDS011;56677;51.710;5.366;2024-02-28T16:15:57;3.47;;;1.83;;
69485;SDS011;56677;51.710;5.366;2024-02-28T16:18:22;4.33;;;2.77;;
69485;SDS011;56677;51.710;5.366;2024-02-28T16:20:47;3.67;;;2.05;;
69485;SDS011;56677;51.710;5.366;2024-02-28T16:23:13;4.30;;;2.25;;
69485;SDS011;56677;51.710;5.366;2024-02-28T16:25:38;5.93;;;2.58;;
69485;SDS011;56677;51.710;5.366;2024-02-28T16:28:04;2.50;;;1.85;;
69485;SDS011;56677;51.710;5.366;2024-02-28T16:30:29;4.20;;;2.57;;
69485;SDS011;56677;51.710;5.366;2024-02-28T16:32:54;3.50;;;1.77;;
69485;SDS011;56677;51.710;5.366;2024-02-28T16:35:20;4.18;;;2.50;;
69485;SDS011;56677;51.710;5.366;2024-02-28T16:37:45;3.80;;;2.10;;
69485;SDS011;56677;51.710;5.366;2024-02-28T16:40:10;5.65;;;2.83;;
69485;SDS011;56677;51.710;5.366;2024-02-28T16:42:35;4.67;;;2.53;;
69485;SDS011;56677;51.710;5.366;2024-02-28T16:45:00;5.87;;;3.00;;
69485;SDS011;56677;51.710;5.366;2024-02-28T16:47:25;7.18;;;4.25;;
69485;SDS011;56677;51.710;5.366;2024-02-28T16:49:51;9.25;;;3.40;;
69485;SDS011;56677;51.710;5.366;2024-02-28T16:52:16;5.97;;;3.13;;
69485;SDS011;56677;51.710;5.366;2024-02-28T16:54:41;5.40;;;3.17;;
69485;SDS011;56677;51.710;5.366;2024-02-28T16:57:06;6.05;;;3.35;;
69485;SDS011;56677;51.710;5.366;2024-02-28T16:59:31;6.07;;;3.20;;
69485;SDS011;56677;51.710;5.366;2024-02-28T17:01:56;5.70;;;3.10;;
69485;SDS011;56677;51.710;5.366;2024-02-28T17:04:21;5.43;;;2.85;;
69485;SDS011;56677;51.710;5.366;2024-02-28T17:06:46;4.47;;;2.90;;
69485;SDS011;56677;51.710;5.366;2024-02-28T17:09:11;6.90;;;2.90;;
69485;SDS011;56677;51.710;5.366;2024-02-28T17:11:37;5.90;;;2.80;;
69485;SDS011;56677;51.710;5.366;2024-02-28T17:14:02;6.43;;;3.00;;
69485;SDS011;56677;51.710;5.366;2024-02-28T17:16:27;6.32;;;3.15;;
69485;SDS011;56677;51.710;5.366;2024-02-28T17:18:52;7.43;;;3.05;;
69485;SDS011;56677;51.710;5.366;2024-02-28T17:21:17;6.63;;;2.90;;
69485;SDS011;56677;51.710;5.366;2024-02-28T17:23:42;6.50;;;2.80;;
69485;SDS011;56677;51.710;5.366;2024-02-28T17:26:07;5.45;;;2.83;;
69485;SDS011;56677;51.710;5.366;2024-02-28T17:28:33;5.32;;;2.53;;
69485;SDS011;56677;51.710;5.366;2024-02-28T17:30:58;6.90;;;2.87;;
69485;SDS011;56677;51.710;5.366;2024-02-28T17:33:23;5.50;;;2.45;;
69485;SDS011;56677;51.710;5.366;2024-02-28T17:35:48;5.90;;;2.88;;
69485;SDS011;56677;51.710;5.366;2024-02-28T17:38:13;6.03;;;2.65;;
69485;SDS011;56677;51.710;5.366;2024-02-28T17:40:38;6.07;;;2.63;;
69485;SDS011;56677;51.710;5.366;2024-02-28T17:43:04;6.13;;;2.67;;
69485;SDS011;56677;51.710;5.366;2024-02-28T17:45:29;6.07;;;2.67;;
69485;SDS011;56677;51.710;5.366;2024-02-28T17:47:54;5.97;;;2.58;;
69485;SDS011;56677;51.710;5.366;2024-02-28T17:50:19;6.68;;;2.65;;
69485;SDS011;56677;51.710;5.366;2024-02-28T17:52:44;3.97;;;2.20;;
69485;SDS011;56677;51.710;5.366;2024-02-28T17:55:10;4.07;;;2.30;;
69485;SDS011;56677;51.710;5.366;2024-02-28T17:57:35;4.47;;;2.33;;
69485;SDS011;56677;51.710;5.366;2024-02-28T18:00:00;5.93;;;2.50;;
69485;SDS011;56677;51.710;5.366;2024-02-28T18:02:25;5.03;;;2.67;;
69485;SDS011;56677;51.710;5.366;2024-02-28T18:04:50;4.30;;;2.38;;
69485;SDS011;56677;51.710;5.366;2024-02-28T18:07:15;5.78;;;2.97;;
69485;SDS011;56677;51.710;5.366;2024-02-28T18:09:41;4.70;;;2.15;;
69485;SDS011;56677;51.710;5.366;2024-02-28T18:12:06;5.53;;;2.63;;
69485;SDS011;56677;51.710;5.366;2024-02-28T18:14:31;5.97;;;2.50;;
69485;SDS011;56677;51.710;5.366;2024-02-28T18:16:56;5.00;;;2.05;;
69485;SDS011;56677;51.710;5.366;2024-02-28T18:19:21;5.40;;;1.90;;
69485;SDS011;56677;51.710;5.366;2024-02-28T18:21:46;9.32;;;2.22;;
69485;SDS011;56677;51.710;5.366;2024-02-28T18:24:11;4.68;;;2.28;;
69485;SDS011;56677;51.710;5.366;2024-02-28T18:26:36;5.15;;;1.90;;
69485;SDS011;56677;51.710;5.366;2024-02-28T18:29:02;5.43;;;2.50;;
69485;SDS011;56677;51.710;5.366;2024-02-28T18:31:27;5.10;;;2.13;;
69485;SDS011;56677;51.710;5.366;2024-02-28T18:33:52;6.50;;;2.47;;
69485;SDS011;56677;51.710;5.366;2024-02-28T18:36:17;5.40;;;2.60;;
69485;SDS011;56677;51.710;5.366;2024-02-28T18:38:42;4.35;;;2.20;;
69485;SDS011;56677;51.710;5.366;2024-02-28T18:41:07;4.60;;;2.08;;
69485;SDS011;56677;51.710;5.366;2024-02-28T18:43:32;6.50;;;2.50;;
69485;SDS011;56677;51.710;5.366;2024-02-28T18:45:57;5.28;;;2.72;;
69485;SDS011;56677;51.710;5.366;2024-02-28T18:48:23;6.00;;;2.75;;
69485;SDS011;56677;51.710;5.366;2024-02-28T18:50:48;3.60;;;2.60;;
69485;SDS011;56677;51.710;5.366;2024-02-28T18:53:13;6.57;;;3.07;;
69485;SDS011;56677;51.710;5.366;2024-02-28T18:55:38;4.38;;;2.40;;
69485;SDS011;56677;51.710;5.366;2024-02-28T18:58:03;4.63;;;2.70;;
69485;SDS011;56677;51.710;5.366;2024-02-28T19:00:28;7.30;;;2.90;;
69485;SDS011;56677;51.710;5.366;2024-02-28T19:02:53;5.38;;;2.90;;
69485;SDS011;56677;51.710;5.366;2024-02-28T19:05:18;5.05;;;2.70;;
69485;SDS011;56677;51.710;5.366;2024-02-28T19:07:44;4.32;;;2.88;;
69485;SDS011;56677;51.710;5.366;2024-02-28T19:10:09;7.68;;;3.00;;
69485;SDS011;56677;51.710;5.366;2024-02-28T19:12:34;5.70;;;2.63;;
69485;SDS011;56677;51.710;5.366;2024-02-28T19:14:59;4.93;;;3.10;;
69485;SDS011;56677;51.710;5.366;2024-02-28T19:17:25;4.83;;;2.97;;
69485;SDS011;56677;51.710;5.366;2024-02-28T19:19:50;3.97;;;2.73;;
69485;SDS011;56677;51.710;5.366;2024-02-28T19:22:15;5.03;;;3.15;;
69485;SDS011;56677;51.710;5.366;2024-02-28T19:24:40;7.77;;;3.40;;
69485;SDS011;56677;51.710;5.366;2024-02-28T19:27:05;3.92;;;2.90;;
69485;SDS011;56677;51.710;5.366;2024-02-28T19:29:30;3.78;;;2.88;;
69485;SDS011;56677;51.710;5.366;2024-02-28T19:31:56;4.43;;;3.08;;
69485;SDS011;56677;51.710;5.366;2024-02-28T19:34:22;3.92;;;2.92;;
69485;SDS011;56677;51.710;5.366;2024-02-28T19:36:47;3.70;;;2.60;;
69485;SDS011;56677;51.710;5.366;2024-02-28T19:39:12;3.95;;;2.92;;
69485;SDS011;56677;51.710;5.366;2024-02-28T19:41:37;4.32;;;2.78;;
69485;SDS011;56677;51.710;5.366;2024-02-28T19:44:02;5.10;;;2.97;;
69485;SDS011;56677;51.710;5.366;2024-02-28T19:46:27;4.20;;;2.27;;
69485;SDS011;56677;51.710;5.366;2024-02-28T19:48:52;5.28;;;2.72;;
69485;SDS011;56677;51.710;5.366;2024-02-28T19:51:18;4.70;;;3.13;;
69485;SDS011;56677;51.710;5.366;2024-02-28T19:53:43;3.45;;;2.63;;
69485;SDS011;56677;51.710;5.366;2024-02-28T19:56:08;4.50;;;2.33;;
69485;SDS011;56677;51.710;5.366;2024-02-28T19:58:33;4.63;;;2.70;;
69485;SDS011;56677;51.710;5.366;2024-02-28T20:00:58;4.43;;;2.63;;
69485;SDS011;56677;51.710;5.366;2024-02-28T20:03:23;6.47;;;3.00;;
69485;SDS011;56677;51.710;5.366;2024-02-28T20:05:48;6.23;;;3.67;;
69485;SDS011;56677;51.710;5.366;2024-02-28T20:08:13;7.50;;;3.47;;
69485;SDS011;56677;51.710;5.366;2024-02-28T20:10:39;7.40;;;3.53;;
69485;SDS011;56677;51.710;5.366;2024-02-28T20:13:04;8.38;;;3.53;;
69485;SDS011;56677;51.710;5.366;2024-02-28T20:15:29;7.28;;;3.20;;
69485;SDS011;56677;51.710;5.366;2024-02-28T20:17:54;8.73;;;4.20;;
69485;SDS011;56677;51.710;5.366;2024-02-28T20:20:19;11.33;;;3.93;;
69485;SDS011;56677;51.710;5.366;2024-02-28T20:22:44;9.60;;;4.03;;
69485;SDS011;56677;51.710;5.366;2024-02-28T20:25:10;10.60;;;4.10;;
69485;SDS011;56677;51.710;5.366;2024-02-28T20:27:35;8.70;;;3.93;;
69485;SDS011;56677;51.710;5.366;2024-02-28T20:30:00;8.18;;;3.92;;
69485;SDS011;56677;51.710;5.366;2024-02-28T20:32:25;8.32;;;4.53;;
69485;SDS011;56677;51.710;5.366;2024-02-28T20:34:50;9.05;;;4.32;;
69485;SDS011;56677;51.710;5.366;2024-02-28T20:37:15;8.10;;;3.92;;
69485;SDS011;56677;51.710;5.366;2024-02-28T20:39:40;8.45;;;3.70;;